createdAt,value
2022-12-28T00:03:05.354Z,45.60
2022-12-28T00:08:25.352Z,45.60
2022-12-28T00:13:45.560Z,45.70
2022-12-28T00:19:05.635Z,45.90
2022-12-28T00:24:25.963Z,46.00
2022-12-28T00:29:46.060Z,46.10
2022-12-28T00:35:06.015Z,46.10
2022-12-28T00:40:26.105Z,46.40
2022-12-28T00:45:46.298Z,46.50
2022-12-28T00:51:06.402Z,46.50
2022-12-28T00:56:26.543Z,46.60
2022-12-28T01:01:46.680Z,46.50
2022-12-28T01:07:06.862Z,46.60
2022-12-28T01:12:26.930Z,46.60
2022-12-28T01:17:47.079Z,46.20
2022-12-28T01:23:07.092Z,44.70
2022-12-28T01:28:27.167Z,41.30
2022-12-28T01:33:47.269Z,39.10
2022-12-28T01:39:07.367Z,38.40
2022-12-28T01:44:27.502Z,38.00
2022-12-28T01:49:47.681Z,37.90
2022-12-28T01:55:07.844Z,37.90
2022-12-28T02:00:27.988Z,38.10
2022-12-28T02:05:48.005Z,38.30
2022-12-28T02:11:08.307Z,38.40
2022-12-28T02:16:28.463Z,38.60
2022-12-28T02:21:48.606Z,38.70
2022-12-28T02:27:08.809Z,38.80
2022-12-28T02:32:29.066Z,38.90
2022-12-28T02:37:49.117Z,38.90
2022-12-28T02:43:09.381Z,39.00
2022-12-28T02:48:29.436Z,39.20
2022-12-28T02:53:49.680Z,39.10
2022-12-28T02:59:09.829Z,39.30
2022-12-28T03:04:29.969Z,39.30
2022-12-28T03:09:50.093Z,39.30
2022-12-28T03:15:10.252Z,39.40
2022-12-28T03:20:30.329Z,39.40
2022-12-28T03:25:50.513Z,39.40
2022-12-28T03:31:10.909Z,39.40
2022-12-28T03:36:31.041Z,39.50
2022-12-28T03:41:51.125Z,39.50
2022-12-28T03:47:11.346Z,39.40
2022-12-28T03:52:31.514Z,39.50
2022-12-28T03:57:51.609Z,39.50
2022-12-28T04:03:11.891Z,39.50
2022-12-28T04:08:32.098Z,39.50
2022-12-28T04:13:52.297Z,39.50
2022-12-28T04:19:12.464Z,39.50
2022-12-28T04:24:32.706Z,39.50
2022-12-28T04:29:52.897Z,39.60
2022-12-28T04:35:13.101Z,39.60
2022-12-28T04:40:33.195Z,39.60
2022-12-28T04:45:53.215Z,39.50
2022-12-28T04:51:13.270Z,39.50
2022-12-28T04:56:33.453Z,39.60
2022-12-28T05:01:53.802Z,39.60
2022-12-28T05:07:13.814Z,39.50
2022-12-28T05:12:33.844Z,39.60
2022-12-28T05:17:54.069Z,39.60
2022-12-28T05:23:14.210Z,39.60
2022-12-28T05:28:34.385Z,39.50
2022-12-28T05:33:55.701Z,39.60
2022-12-28T05:39:15.593Z,39.60
2022-12-28T05:44:35.718Z,39.60
2022-12-28T05:49:56.305Z,39.60
2022-12-28T05:55:16.397Z,39.60
2022-12-28T06:00:36.575Z,39.60
2022-12-28T06:05:56.593Z,39.60
2022-12-28T06:11:16.765Z,39.60
2022-12-28T06:16:36.894Z,39.60
2022-12-28T06:21:56.932Z,39.60
2022-12-28T06:27:17.138Z,39.60
2022-12-28T06:32:37.180Z,39.60
2022-12-28T06:37:57.347Z,39.60
2022-12-28T06:43:17.554Z,39.60
2022-12-28T06:48:37.599Z,39.60
2022-12-28T06:53:57.663Z,39.70
2022-12-28T06:59:17.814Z,39.60
2022-12-28T07:04:38.043Z,39.60
2022-12-28T07:09:58.160Z,39.70
2022-12-28T07:15:18.352Z,39.70
2022-12-28T07:20:40.491Z,39.60
2022-12-28T07:26:00.685Z,39.70
2022-12-28T07:31:20.892Z,39.60
2022-12-28T07:36:40.860Z,39.60
2022-12-28T07:42:00.876Z,39.60
2022-12-28T07:47:21.091Z,39.60
2022-12-28T07:52:41.191Z,39.70
2022-12-28T07:58:01.455Z,39.70
2022-12-28T08:03:21.485Z,39.70
2022-12-28T08:08:41.665Z,39.60
2022-12-28T08:14:01.767Z,39.60
2022-12-28T08:19:21.907Z,39.60
2022-12-28T08:24:42.067Z,39.70
2022-12-28T08:30:02.453Z,39.60
2022-12-28T08:35:22.488Z,39.60
2022-12-28T08:40:42.632Z,39.70
2022-12-28T08:46:02.897Z,39.70
2022-12-28T08:51:23.058Z,39.70
2022-12-28T08:56:43.270Z,39.80
2022-12-28T09:02:03.516Z,39.70
2022-12-28T09:07:23.537Z,39.60
2022-12-28T09:12:43.725Z,39.70
2022-12-28T09:18:03.775Z,39.60
2022-12-28T09:23:24.054Z,39.60
2022-12-28T09:28:44.139Z,39.70
2022-12-28T09:39:45.603Z,39.60
2022-12-28T09:45:05.728Z,39.70
2022-12-28T09:50:25.901Z,39.90
2022-12-28T09:55:45.997Z,39.70
2022-12-28T10:01:06.309Z,39.60
2022-12-28T10:06:26.433Z,39.60
2022-12-28T10:11:46.501Z,39.60
2022-12-28T10:17:06.755Z,39.60
2022-12-28T10:22:26.824Z,39.60
2022-12-28T10:27:47.113Z,39.60
2022-12-28T10:33:09.764Z,39.60
2022-12-28T10:38:33.645Z,39.50
2022-12-28T10:44:21.571Z,39.60
2022-12-28T10:49:33.851Z,39.50
2022-12-28T10:55:07.404Z,39.50
2022-12-28T11:00:28.814Z,39.50
2022-12-28T11:05:57.326Z,39.50
2022-12-28T11:11:17.822Z,39.50
2022-12-28T11:16:37.982Z,39.50
2022-12-28T11:21:58.126Z,39.50
2022-12-28T11:27:18.280Z,39.50
2022-12-28T11:32:38.382Z,39.50
2022-12-28T11:37:58.590Z,39.50
2022-12-28T11:43:18.702Z,39.50
2022-12-28T11:48:38.813Z,39.50
2022-12-28T11:53:59.046Z,39.50
2022-12-28T11:59:19.224Z,39.50
2022-12-28T12:04:39.387Z,39.50
2022-12-28T12:09:59.460Z,39.50
2022-12-28T12:15:19.688Z,39.50
2022-12-28T12:20:39.809Z,39.70
2022-12-28T12:26:00.081Z,39.50
2022-12-28T12:31:20.147Z,39.50
2022-12-28T12:36:40.240Z,39.50
2022-12-28T12:42:00.211Z,39.50
2022-12-28T12:47:20.334Z,39.50
2022-12-28T12:52:42.381Z,39.50
2022-12-28T12:58:03.092Z,39.50
2022-12-28T13:03:23.338Z,39.50
2022-12-28T13:08:43.576Z,39.50
2022-12-28T13:14:03.782Z,39.50
2022-12-28T13:19:23.837Z,39.50
2022-12-28T13:24:43.970Z,39.50
2022-12-28T13:30:04.276Z,39.50
2022-12-28T13:35:24.468Z,39.50
2022-12-28T13:40:44.638Z,39.40
2022-12-28T13:46:04.797Z,39.50
2022-12-28T13:51:24.873Z,39.40
2022-12-28T13:56:44.934Z,39.40
2022-12-28T14:02:05.092Z,39.40
2022-12-28T14:07:25.005Z,39.40
2022-12-28T14:12:45.286Z,39.40
2022-12-28T14:18:05.444Z,39.40
2022-12-28T14:23:25.633Z,39.40
2022-12-28T14:28:45.742Z,39.50
2022-12-28T14:34:05.981Z,39.50
2022-12-28T14:39:26.680Z,39.60
2022-12-28T14:44:50.904Z,39.60
2022-12-28T14:50:14.057Z,39.60
2022-12-28T14:55:34.122Z,39.60
2022-12-28T15:00:54.577Z,39.60
2022-12-28T15:06:14.616Z,39.60
2022-12-28T15:11:34.640Z,39.70
2022-12-28T15:16:54.798Z,39.70
2022-12-28T15:22:15.004Z,39.70
2022-12-28T15:27:35.089Z,39.60
2022-12-28T15:32:55.359Z,39.60
2022-12-28T15:38:15.449Z,39.70
2022-12-28T15:43:35.556Z,39.60
2022-12-28T15:48:55.691Z,39.60
2022-12-28T15:54:15.900Z,39.60
2022-12-28T15:59:36.140Z,39.70
2022-12-28T16:04:56.460Z,39.70
2022-12-28T16:10:16.521Z,39.70
2022-12-28T16:15:36.594Z,39.70
2022-12-28T16:20:56.641Z,39.70
2022-12-28T16:26:16.846Z,39.80
2022-12-28T16:31:36.999Z,39.80
2022-12-28T16:36:57.151Z,39.80
2022-12-28T16:42:17.117Z,40.20
2022-12-28T16:47:44.467Z,39.90
2022-12-28T16:53:04.956Z,40.00
2022-12-28T16:58:25.117Z,39.90
2022-12-28T17:03:45.350Z,40.00
2022-12-28T17:09:05.609Z,39.90
2022-12-28T17:14:36.922Z,42.40
2022-12-28T17:19:57.420Z,42.40
2022-12-28T17:25:17.530Z,43.00
2022-12-28T17:30:37.658Z,43.40
2022-12-28T17:35:57.640Z,43.50
2022-12-28T17:41:18.021Z,43.30
2022-12-28T17:46:38.126Z,43.00
2022-12-28T17:51:58.255Z,42.30
2022-12-28T17:57:18.440Z,41.80
2022-12-28T18:02:38.933Z,41.30
2022-12-28T18:07:59.450Z,40.80
2022-12-28T18:13:19.538Z,40.70
2022-12-28T18:18:39.541Z,40.70
2022-12-28T18:23:59.837Z,40.60
2022-12-28T18:29:19.929Z,40.30
2022-12-28T18:34:40.131Z,39.70
2022-12-28T18:40:00.170Z,38.70
2022-12-28T18:45:20.330Z,38.50
2022-12-28T18:50:40.381Z,38.60
2022-12-28T18:56:00.495Z,38.60
2022-12-28T19:01:55.964Z,38.70
2022-12-28T19:07:00.552Z,38.60
2022-12-28T19:12:20.546Z,38.30
2022-12-28T19:17:40.724Z,38.10
2022-12-28T19:23:00.807Z,37.80
2022-12-28T19:28:20.922Z,37.70
2022-12-28T19:33:41.057Z,37.60
2022-12-28T19:39:01.163Z,37.70
2022-12-28T19:44:21.346Z,37.90
2022-12-28T19:49:41.551Z,38.00
2022-12-28T19:55:01.703Z,38.10
2022-12-28T20:00:22.057Z,38.10
2022-12-28T20:05:42.193Z,37.80
2022-12-28T20:11:02.397Z,37.70
2022-12-28T20:16:22.665Z,37.60
2022-12-28T20:21:42.863Z,37.60
2022-12-28T20:27:02.883Z,37.50
2022-12-28T20:32:23.085Z,37.60
2022-12-28T20:37:43.222Z,37.70
2022-12-28T20:43:03.448Z,38.50
2022-12-28T20:48:23.624Z,38.60
2022-12-28T20:53:43.832Z,38.40
2022-12-28T20:59:04.029Z,38.30
2022-12-28T21:04:24.321Z,38.30
2022-12-28T21:09:44.252Z,38.40
2022-12-28T21:15:04.477Z,38.40
2022-12-28T21:20:24.512Z,38.50
2022-12-28T21:25:44.808Z,38.70
2022-12-28T21:31:05.004Z,38.80
2022-12-28T21:36:25.329Z,39.00
2022-12-28T21:41:45.438Z,39.00
2022-12-28T21:47:05.643Z,39.30
2022-12-28T21:52:25.788Z,39.40
2022-12-28T21:57:46.006Z,39.50
2022-12-28T22:03:06.152Z,39.70
2022-12-28T22:08:26.243Z,39.80
2022-12-28T22:13:46.325Z,40.00
2022-12-28T22:19:06.414Z,40.00
2022-12-28T22:24:26.585Z,40.10
2022-12-28T22:29:46.818Z,40.20
2022-12-28T22:35:07.043Z,40.30
2022-12-28T22:40:27.315Z,40.40
2022-12-28T22:45:47.480Z,40.40
2022-12-28T22:51:07.760Z,40.50
2022-12-28T22:56:27.989Z,40.50
2022-12-28T23:01:48.174Z,40.50
2022-12-28T23:07:09.788Z,40.50
2022-12-28T23:12:29.895Z,40.60
2022-12-28T23:17:50.032Z,40.70
2022-12-28T23:23:10.305Z,40.70
2022-12-28T23:28:30.446Z,40.60
2022-12-28T23:33:50.614Z,40.70
2022-12-28T23:39:10.720Z,40.70
2022-12-28T23:44:30.785Z,40.70
2022-12-28T23:49:50.922Z,40.70
2022-12-28T23:55:10.913Z,40.70
